createdAt,value
2016-05-28T09:44:20.449Z,75.41
2016-05-28T09:45:20.405Z,75.41
2016-05-28T09:46:20.362Z,75.51
2016-05-28T09:47:20.161Z,75.47
2016-05-28T09:48:20.274Z,76.05
2016-05-28T09:49:20.213Z,75.99
2016-05-28T09:50:20.528Z,75.99
2016-05-28T09:51:20.125Z,76.09
2016-05-28T09:52:19.940Z,75.99
2016-05-28T09:53:20.051Z,76.57
2016-05-28T09:54:20.008Z,76.47
2016-05-28T09:55:19.964Z,76.18
2016-05-28T09:56:19.951Z,76.47
2016-05-28T09:57:19.891Z,75.6
2016-05-28T09:58:19.894Z,74.54
2016-05-28T09:59:19.818Z,75.02
2016-05-28T10:00:19.775Z,75.51
2016-05-28T10:01:19.730Z,75.31
2016-05-28T10:02:21.779Z,75.18
2016-05-28T10:03:19.641Z,75.22
2016-05-28T10:04:19.614Z,74.64
2016-05-28T10:05:19.413Z,74.83
2016-05-28T10:06:19.524Z,75.09
2016-05-28T10:07:19.856Z,75.02
2016-05-28T10:08:19.452Z,75.47
2016-05-28T10:09:19.439Z,75.41
2016-05-28T10:10:19.380Z,75.31
2016-05-28T10:11:19.336Z,75.51
2016-05-28T10:12:20.369Z,75.51
2016-05-28T10:13:19.277Z,75.41
2016-05-28T10:14:19.233Z,75.12
2016-05-28T10:15:19.190Z,75.12
2016-05-28T10:16:19.146Z,75.22
2016-05-28T10:17:23.821Z,74.93
2016-05-28T10:18:19.073Z,74.73
2016-05-28T10:19:19.044Z,74.93
2016-05-28T10:20:19.015Z,74.93
2016-05-28T10:21:18.971Z,74.93
2016-05-28T10:22:18.927Z,74.83
2016-05-28T10:23:18.883Z,74.83
2016-05-28T10:24:18.854Z,75.22
2016-05-28T10:25:18.653Z,74.83
2016-05-28T10:26:18.813Z,75.12
2016-05-28T10:27:18.737Z,75.02
2016-05-28T10:28:18.693Z,74.93
2016-05-28T10:29:18.664Z,75.31
2016-05-28T10:30:18.636Z,75.22
2016-05-28T10:31:18.592Z,75.12
2016-05-28T10:32:18.564Z,75.51
2016-05-28T10:33:18.550Z,75.22
2016-05-28T10:34:18.475Z,75.02
2016-05-28T10:35:18.290Z,74.83
2016-05-28T10:36:18.402Z,74.64
2016-05-28T10:37:18.374Z,74.93
2016-05-28T10:38:18.360Z,74.73
2016-05-28T10:39:18.285Z,74.83
2016-05-28T10:40:18.100Z,75.02
2016-05-28T10:41:18.213Z,75.02
2016-05-28T10:42:18.183Z,75.22
2016-05-28T10:43:18.140Z,75.51
2016-05-28T10:44:18.111Z,75.12
2016-05-28T10:45:18.066Z,75.22
2016-05-28T10:46:18.038Z,75.79
2016-05-28T10:47:17.979Z,76.18
2016-05-28T10:48:17.965Z,76.18
2016-05-28T10:49:17.765Z,76.37
2016-05-28T10:50:18.159Z,76.57
2016-05-28T10:51:17.833Z,76.37
2016-05-28T10:52:17.648Z,76.67
2016-05-28T10:53:17.760Z,76.57
2016-05-28T10:54:17.732Z,76.57
2016-05-28T10:55:18.079Z,76.86
2016-05-28T10:56:17.675Z,76.28
2016-05-28T10:57:17.615Z,76.57
2016-05-28T10:58:17.571Z,76.95
2016-05-28T10:59:17.542Z,77.25
2016-05-28T11:00:17.498Z,77.34
2016-05-28T11:01:17.469Z,77.25
2016-05-28T11:02:17.442Z,77.15
2016-05-28T11:03:17.397Z,77
2016-05-28T11:04:17.353Z,77.44
2016-05-28T11:05:17.324Z,77.05
2016-05-28T11:06:17.295Z,77.25
2016-05-28T11:07:17.251Z,77.53
2016-05-28T11:08:17.207Z,77.38
2016-05-28T11:09:17.163Z,77.53
2016-05-28T11:10:17.119Z,77.38
2016-05-28T11:11:17.121Z,77.44
2016-05-28T11:12:17.061Z,77.53
2016-05-28T11:13:17.017Z,77.67
2016-05-28T11:14:16.974Z,77.92
2016-05-28T11:15:16.944Z,78.11
2016-05-28T11:16:16.900Z,78.44
2016-05-28T11:17:16.872Z,78.5
2016-05-28T11:18:16.844Z,78.54
2016-05-28T11:19:16.799Z,78.11
2016-05-28T11:20:17.099Z,78.31
2016-05-28T11:21:16.727Z,78.25
2016-05-28T11:22:16.699Z,77.96
2016-05-28T11:23:16.653Z,78.15
2016-05-28T11:24:16.609Z,78.25
2016-05-28T11:25:16.581Z,78.06
2016-05-28T11:26:16.537Z,78.34
2016-05-28T11:27:16.508Z,78.83
2016-05-28T11:28:16.448Z,78.92
2016-05-28T11:29:16.420Z,78.73
2016-05-28T11:30:16.392Z,78.69
2016-05-28T11:31:16.347Z,78.44
2016-05-28T11:32:16.318Z,78.73
2016-05-28T11:33:16.275Z,78.73
2016-05-28T11:34:16.231Z,78.44
2016-05-28T11:35:16.201Z,78.92
2016-05-28T11:36:16.157Z,78.54
2016-05-28T11:37:16.113Z,78.54
2016-05-28T11:38:16.084Z,78.44
2016-05-28T11:39:16.056Z,78.34
2016-05-28T11:40:15.855Z,78.44
2016-05-28T11:41:15.984Z,78.34
2016-05-28T11:42:15.939Z,78.34
2016-05-28T11:43:15.910Z,78.44
2016-05-28T11:44:15.866Z,78.92
2016-05-28T11:45:15.822Z,78.73
2016-05-28T11:46:15.794Z,78.73
2016-05-28T11:47:15.750Z,78.64
2016-05-28T11:48:15.721Z,78.73
2016-05-28T11:49:15.676Z,78.54
2016-05-28T11:50:16.086Z,78.54
2016-05-28T11:51:15.604Z,78.92
2016-05-28T11:52:15.560Z,78.73
2016-05-28T11:53:15.374Z,78.54
2016-05-28T11:54:15.331Z,78.64
2016-05-28T11:55:15.474Z,78.64
2016-05-28T11:56:15.415Z,78.44
2016-05-28T11:57:15.385Z,78.44
2016-05-28T11:58:15.342Z,78.54
2016-05-28T11:59:15.312Z,78.34
2016-05-28T12:00:15.285Z,78.34
2016-05-28T12:01:15.225Z,78.34
2016-05-28T12:02:15.243Z,78.34
2016-05-28T12:03:15.151Z,78.15
2016-05-28T12:04:15.124Z,78.44
2016-05-28T12:05:15.126Z,78.34
2016-05-28T12:06:15.050Z,78.15
2016-05-28T12:07:15.007Z,78.06
2016-05-28T12:08:14.993Z,78.15
2016-05-28T12:09:14.778Z,78.25
2016-05-28T12:10:14.906Z,78.25
2016-05-28T12:11:14.877Z,78.06
2016-05-28T12:12:14.832Z,78.25
2016-05-28T12:13:14.789Z,78.15
2016-05-28T12:14:14.744Z,78.15
2016-05-28T12:15:14.716Z,78.44
2016-05-28T12:16:14.686Z,78.44
2016-05-28T12:17:14.502Z,77.96
2016-05-28T12:18:14.599Z,77.86
2016-05-28T12:19:14.570Z,78.15
2016-05-28T12:20:14.541Z,77.86
2016-05-28T12:21:14.529Z,77.86
2016-05-28T12:22:14.452Z,77.96
2016-05-28T12:23:14.440Z,77.86
2016-05-28T12:24:14.377Z,77.86
2016-05-28T12:25:14.349Z,77.96
2016-05-28T12:26:14.305Z,77.67
2016-05-28T12:27:14.276Z,77.96
2016-05-28T12:28:14.232Z,77.96
2016-05-28T12:29:14.187Z,77.76
2016-05-28T12:30:14.160Z,77.86
2016-05-28T12:31:14.131Z,77.86
2016-05-28T12:32:14.086Z,77.96
2016-05-28T12:33:14.058Z,77.96
2016-05-28T12:34:14.014Z,77.57
2016-05-28T12:35:13.985Z,77.76
2016-05-28T12:36:13.941Z,77.76
2016-05-28T12:37:13.898Z,77.76
2016-05-28T12:38:13.868Z,77.73
2016-05-28T12:39:13.825Z,77.76
2016-05-28T12:41:12.923Z,77.32
2016-05-28T12:42:12.801Z,76.1
2016-05-28T12:43:12.756Z,76.97
2016-05-28T12:44:12.713Z,75.46
2016-05-28T12:45:12.700Z,75.17
2016-05-28T12:46:12.483Z,73.18
2016-05-28T12:47:12.597Z,73.14
2016-05-28T12:48:12.552Z,71.4
2016-05-28T12:49:12.522Z,71.01
2016-05-28T12:50:12.666Z,71.69
2016-05-28T12:51:12.435Z,72.79
2016-05-28T12:52:12.390Z,72.4
2016-05-28T12:53:12.346Z,72.6
2016-05-28T12:54:12.302Z,73.47
2016-05-28T12:55:12.257Z,73.47
2016-05-28T12:56:12.229Z,74.05
2016-05-28T12:57:12.216Z,72.75
2016-05-28T12:58:12.140Z,72.36
2016-05-28T12:59:12.096Z,71.82
2016-05-28T13:00:12.069Z,72.27
2016-05-28T13:01:12.024Z,71.69
2016-05-28T13:02:12.026Z,72.36
2016-05-28T13:03:11.952Z,71.2
2016-05-28T13:04:11.907Z,72.56
2016-05-28T13:05:11.926Z,72.81
2016-05-28T13:06:11.834Z,72.27
2016-05-28T13:07:11.775Z,72.42
2016-05-28T13:08:11.715Z,72.72
2016-05-28T13:09:11.687Z,73.1
2016-05-28T13:10:11.626Z,72.33
2016-05-28T13:11:11.613Z,72.33
2016-05-28T13:12:11.569Z,73.3
2016-05-28T13:13:11.525Z,74.07
2016-05-28T13:14:11.481Z,75.23
2016-05-28T13:15:11.436Z,75.33
2016-05-28T13:16:11.408Z,76.39
2016-05-28T13:17:11.364Z,76.45
2016-05-28T13:18:11.304Z,76.64
2016-05-28T13:19:11.291Z,76.93
2016-05-28T13:20:11.715Z,76.16
2016-05-28T13:21:11.188Z,75.2
2016-05-28T13:22:11.158Z,76.06
2016-05-28T13:23:11.114Z,76.26
2016-05-28T13:24:11.055Z,77.13
2016-05-28T13:25:11.041Z,77.42
2016-05-28T13:26:10.982Z,78.77
2016-05-28T13:27:11.079Z,79.93
2016-05-28T13:28:10.940Z,79.74
2016-05-28T13:29:10.866Z,80.03
2016-05-28T13:30:10.821Z,80.03
2016-05-28T13:31:10.761Z,79.45
2016-05-28T13:32:10.732Z,80.8
2016-05-28T13:33:10.704Z,80.86
2016-05-28T13:34:10.644Z,81.44
2016-05-28T13:35:10.601Z,80.76
2016-05-28T13:36:10.556Z,81.53
2016-05-28T13:37:10.527Z,80.76
2016-05-28T13:38:10.327Z,80.86
2016-05-28T13:39:10.423Z,83.08
2016-05-28T13:40:10.410Z,83.66
2016-05-28T13:41:10.350Z,83.66
2016-05-28T13:42:10.150Z,84.24
2016-05-28T13:43:10.293Z,84.3
2016-05-28T13:44:10.250Z,84.3
2016-05-28T13:45:10.189Z,83.62
2016-05-28T13:46:09.989Z,84.88
2016-05-28T13:47:09.944Z,84.14
2016-05-28T13:48:10.072Z,84.24
2016-05-28T13:49:10.013Z,85.59
2016-05-28T13:50:10.077Z,84.48
2016-05-28T13:51:09.940Z,84.3
2016-05-28T13:52:09.896Z,83.14
2016-05-28T13:53:09.867Z,83.23
2016-05-28T13:54:09.807Z,84.1
2016-05-28T13:55:09.763Z,84.39
2016-05-28T13:56:09.719Z,83.48
2016-05-28T13:57:09.675Z,82.42
2016-05-28T13:58:09.630Z,82.71
2016-05-28T13:59:09.618Z,83.48
2016-05-28T14:00:09.557Z,83.58
2016-05-28T14:01:09.498Z,84.64
2016-05-28T14:02:09.501Z,86.57
2016-05-28T14:03:09.426Z,87.05
2016-05-28T14:04:09.381Z,88.5
2016-05-28T14:05:09.352Z,90.14
2016-05-28T14:06:09.309Z,90.47
2016-05-28T14:07:09.248Z,91.25
2016-05-28T14:08:09.204Z,90.62
2016-05-28T14:09:09.176Z,91.01
2016-05-28T14:10:09.132Z,91.11
2016-05-28T14:11:09.087Z,90.43
2016-05-28T14:12:09.058Z,89.89
2016-05-28T14:13:08.999Z,90.72
2016-05-28T14:14:08.970Z,91.68
2016-05-28T14:15:08.785Z,92.36
2016-05-28T14:16:08.905Z,93.04
2016-05-28T14:17:08.884Z,91.97
2016-05-28T14:18:08.880Z,93.71
2016-05-28T14:19:08.859Z,94.2
2016-05-28T14:20:08.829Z,92.94
2016-05-28T14:21:08.810Z,94.96
2016-05-28T14:22:08.775Z,95.16
2016-05-28T14:23:08.724Z,94.68
2016-05-28T14:24:08.704Z,94.87
2016-05-28T14:25:08.649Z,94.48
2016-05-28T14:26:08.623Z,94.24
2016-05-28T14:27:08.583Z,90.28
2016-05-28T14:28:08.542Z,90.67
2016-05-28T14:29:08.501Z,90.57
2016-05-28T14:30:08.474Z,89.79
2016-05-28T14:31:08.431Z,90.37
2016-05-28T14:32:08.372Z,89.89
2016-05-28T14:33:08.329Z,91.25
2016-05-28T14:34:08.301Z,90.86
2016-05-28T14:35:08.602Z,90.67
2016-05-28T14:36:08.230Z,89.61
2016-05-28T14:37:08.170Z,88.64
2016-05-28T14:38:08.127Z,89.41
2016-05-28T14:39:08.114Z,90.43
2016-05-28T14:40:08.055Z,90.86
2016-05-28T14:41:08.010Z,92.02
2016-05-28T14:42:07.967Z,90.43
2016-05-28T14:43:07.953Z,90.86
2016-05-28T14:44:07.893Z,89.79
2016-05-28T14:45:07.849Z,90.43
2016-05-28T14:46:07.806Z,88.5
2016-05-28T14:47:07.761Z,86.28
2016-05-28T14:48:07.717Z,86.28
2016-05-28T14:49:07.688Z,88.59
2016-05-28T14:50:08.113Z,88.4
2016-05-28T14:51:07.584Z,89.51
2016-05-28T14:52:07.539Z,89.51
2016-05-28T14:53:07.496Z,88.93
2016-05-28T14:54:07.483Z,89.41
2016-05-28T14:55:07.423Z,89.47
2016-05-28T14:56:07.379Z,87.29
2016-05-28T14:57:07.335Z,88.25
2016-05-28T14:58:07.291Z,87.63
2016-05-28T14:59:07.277Z,88.64
2016-05-28T15:00:07.203Z,88.5
2016-05-28T15:01:07.002Z,88.15
2016-05-28T15:02:07.129Z,89.22
2016-05-28T15:03:07.085Z,86.32
2016-05-28T15:04:07.041Z,86.66
2016-05-28T15:05:07.028Z,85.8
2016-05-28T15:06:06.952Z,84.25
2016-05-28T15:07:06.940Z,85.41
2016-05-28T15:08:06.896Z,84.16
2016-05-28T15:09:06.835Z,85.36
2016-05-28T15:10:06.792Z,83.91
2016-05-28T15:11:06.590Z,84.78
2016-05-28T15:12:06.704Z,84.3
2016-05-28T15:13:06.659Z,81.74
2016-05-28T15:14:06.709Z,82.26
2016-05-28T15:15:06.508Z,84.48
2016-05-28T15:16:06.558Z,86.71
2016-05-28T15:17:06.498Z,87.87
2016-05-28T15:18:06.469Z,85.64
2016-05-28T15:19:06.425Z,85.84
2016-05-28T15:20:06.240Z,83.52
2016-05-28T15:21:06.336Z,83.72
2016-05-28T15:22:06.292Z,85.55
2016-05-28T15:23:06.327Z,84.35
2016-05-28T15:24:06.282Z,86.42
2016-05-28T15:25:06.223Z,84.68
2016-05-28T15:26:06.131Z,84.88
2016-05-28T15:27:06.088Z,85.26
2016-05-28T15:28:06.044Z,86.03
2016-05-28T15:29:06.014Z,87.19
2016-05-28T15:30:05.955Z,88.06
2016-05-28T15:31:05.927Z,85.74
2016-05-28T15:32:05.882Z,84.78
2016-05-28T15:33:05.682Z,84.35
2016-05-28T15:34:05.809Z,84.39
2016-05-28T15:35:05.749Z,83.04
2016-05-28T15:36:05.705Z,82.36
2016-05-28T15:37:05.660Z,82.26
2016-05-28T15:38:05.633Z,81.4
2016-05-28T15:39:05.588Z,81.45
2016-05-28T15:40:05.529Z,81.68
2016-05-28T15:41:05.344Z,81.4
2016-05-28T15:42:05.471Z,81.01
2016-05-28T15:43:05.411Z,81.88
2016-05-28T15:44:05.384Z,81.84
2016-05-28T15:45:05.339Z,80.72
2016-05-28T15:46:05.310Z,81.49
2016-05-28T15:47:05.251Z,82.17
2016-05-28T15:48:05.206Z,81.98
2016-05-28T15:49:05.178Z,82.61
2016-05-28T15:50:05.117Z,81.74
2016-05-28T15:51:05.074Z,81.11
2016-05-28T15:52:05.045Z,80.53
2016-05-28T15:53:05.000Z,81.01
2016-05-28T15:54:04.957Z,81.49
2016-05-28T15:55:04.945Z,81.26
2016-05-28T15:56:04.884Z,80.97
2016-05-28T15:57:04.839Z,81.35
2016-05-28T15:58:04.796Z,83.04
2016-05-28T15:59:04.752Z,82.46
2016-05-28T16:00:04.708Z,81.98
2016-05-28T16:01:04.664Z,82.46
2016-05-28T16:02:04.635Z,82.36
2016-05-28T16:03:04.575Z,82.75
2016-05-28T16:04:04.530Z,83.33
2016-05-28T16:05:04.674Z,83.91
2016-05-28T16:06:04.458Z,83
2016-05-28T16:07:04.445Z,84.74
2016-05-28T16:08:04.385Z,84.64
2016-05-28T16:09:04.341Z,85.22
2016-05-28T16:10:04.281Z,85.06
2016-05-28T16:11:04.268Z,86.57
2016-05-28T16:12:04.224Z,86.32
2016-05-28T16:13:04.164Z,87.53
2016-05-28T16:14:03.979Z,86.61
2016-05-28T16:15:04.092Z,87.34
2016-05-28T16:16:04.048Z,86.76
2016-05-28T16:17:04.159Z,86.57
2016-05-28T16:18:03.959Z,85.6
2016-05-28T16:19:03.931Z,86.28
2016-05-28T16:20:05.887Z,86.47
2016-05-28T16:21:03.842Z,88.11
2016-05-28T16:22:03.861Z,86.47
2016-05-28T16:23:03.754Z,86.28
2016-05-28T16:24:03.725Z,87.15
2016-05-28T16:25:03.665Z,86.08
2016-05-28T16:26:03.621Z,85.22
2016-05-28T16:27:03.578Z,85.41
2016-05-28T16:28:03.392Z,85.5
2016-05-28T16:29:03.520Z,85.41
2016-05-28T16:30:03.460Z,84.74
2016-05-28T16:31:03.463Z,85.6
2016-05-28T16:32:03.372Z,85.5
2016-05-28T16:33:03.327Z,85.89
2016-05-28T16:34:03.314Z,86.28
2016-05-28T16:35:03.130Z,87.63
2016-05-28T16:36:03.210Z,87.34
2016-05-28T16:37:03.027Z,85.22
2016-05-28T16:38:03.122Z,85.99
2016-05-28T16:39:03.140Z,86.28
2016-05-28T16:40:03.049Z,85.02
2016-05-28T16:41:03.005Z,85.89
2016-05-28T16:42:02.961Z,84.74
2016-05-28T16:43:02.760Z,84.44
2016-05-28T16:44:02.888Z,83.96
2016-05-28T16:45:02.829Z,83.58
2016-05-28T16:46:02.800Z,83.87
2016-05-28T16:47:02.756Z,84.35
2016-05-28T16:48:02.727Z,83.96
2016-05-28T16:49:02.684Z,83
2016-05-28T16:50:02.623Z,84.54
2016-05-28T16:51:02.579Z,83.48
2016-05-28T16:52:02.534Z,83.58
2016-05-28T16:53:02.506Z,84.25
2016-05-28T16:54:02.447Z,83.77
2016-05-28T16:55:02.417Z,83
2016-05-28T16:56:02.373Z,83.09
2016-05-28T16:57:02.330Z,83.19
2016-05-28T16:58:02.300Z,82.23
2016-05-28T16:59:02.117Z,82.23
2016-05-28T17:00:02.228Z,82.23
2016-05-28T17:01:02.168Z,83.53
2016-05-28T17:02:02.108Z,83.67
2016-05-28T17:03:02.080Z,84.16
2016-05-28T17:04:02.036Z,83.05
2016-05-28T17:05:02.288Z,83.53
2016-05-28T17:06:01.964Z,83.63
2016-05-28T17:07:01.919Z,84.01
2016-05-28T17:08:01.875Z,84.41
2016-05-28T17:09:01.815Z,84.21
2016-05-28T17:10:01.786Z,83.44
2016-05-28T17:11:01.757Z,84.11
2016-05-28T17:12:01.699Z,83.92
2016-05-28T17:13:01.669Z,84.5
2016-05-28T17:14:01.610Z,84.41
2016-05-28T17:15:01.409Z,83.44
2016-05-28T17:16:01.537Z,84.11
2016-05-28T17:17:01.493Z,84.69
2016-05-28T17:18:01.449Z,84.69
2016-05-28T17:19:01.404Z,85.75
2016-05-28T17:20:01.517Z,85.94
2016-05-28T17:21:01.175Z,84.89
2016-05-28T17:22:01.287Z,85.46
2016-05-28T17:23:01.243Z,84.79
2016-05-28T17:24:01.199Z,84.59
2016-05-28T17:25:01.201Z,85.46
2016-05-28T17:26:01.111Z,84.5
2016-05-28T17:27:01.067Z,85.27
2016-05-28T17:28:01.022Z,84.01
2016-05-28T17:29:00.994Z,84.59
2016-05-28T17:30:00.949Z,84.31
2016-05-28T17:31:00.906Z,84.5
2016-05-28T17:32:00.705Z,83.63
2016-05-28T17:33:00.816Z,84.21
2016-05-28T17:34:00.773Z,84.31
2016-05-28T17:35:00.760Z,84.21
2016-05-28T17:36:00.715Z,83.83
2016-05-28T17:37:00.656Z,84.69
2016-05-28T17:38:00.628Z,84.5
2016-05-28T17:39:00.411Z,84.17
2016-05-28T17:40:00.523Z,85.33
2016-05-28T17:41:00.479Z,84.31
2016-05-28T17:42:00.434Z,85.81
2016-05-28T17:43:00.391Z,84.84
2016-05-28T17:44:00.346Z,84.65
2016-05-28T17:45:00.365Z,84.69
2016-05-28T17:46:00.118Z,84.17
2016-05-28T17:47:00.073Z,85.33
2016-05-28T17:48:00.185Z,85.17
2016-05-28T17:49:00.141Z,84.84
2016-05-28T17:50:00.098Z,86.29
2016-05-28T17:51:00.678Z,86.1
2016-05-28T17:52:00.009Z,86
2016-05-28T17:52:59.981Z,85.33
2016-05-28T17:53:59.936Z,85.71
2016-05-28T17:54:59.876Z,86.48
2016-05-28T17:55:59.847Z,86.87
2016-05-28T17:56:59.803Z,86.58
2016-05-28T17:57:59.759Z,87.16
2016-05-28T17:58:59.714Z,86.87
2016-05-28T17:59:59.687Z,88.22
2016-05-28T18:00:59.627Z,88.22
2016-05-28T18:01:59.597Z,88.12
2016-05-28T18:02:59.554Z,88.02
2016-05-28T18:03:59.510Z,87.54
2016-05-28T18:04:59.465Z,88.31
2016-05-28T18:05:59.421Z,88.41
2016-05-28T18:06:59.394Z,90.53
2016-05-28T18:07:59.349Z,89.91
2016-05-28T18:08:59.304Z,90.24
2016-05-28T18:09:59.261Z,89.81
2016-05-28T18:10:59.216Z,90.39
2016-05-28T18:11:59.171Z,91.74
2016-05-28T18:12:59.127Z,91.26
2016-05-28T18:13:59.083Z,91.83
2016-05-28T18:14:59.040Z,92.13
2016-05-28T18:15:59.026Z,92.8
2016-05-28T18:16:58.966Z,92.9
2016-05-28T18:17:58.907Z,92.41
2016-05-28T18:18:59.003Z,92.61
2016-05-28T18:19:59.428Z,93.19
2016-05-28T18:20:58.634Z,93.48
2016-05-28T18:21:58.776Z,92.66
2016-05-28T18:22:58.562Z,93.38
2016-05-28T18:23:58.657Z,94.34
2016-05-28T18:24:58.612Z,94.39
2016-05-28T18:25:58.570Z,94.1
2016-05-28T18:26:58.540Z,95.07
2016-05-28T18:27:58.495Z,93.24
2016-05-28T18:28:58.452Z,93.81
2016-05-28T18:29:58.251Z,92.76
2016-05-28T18:30:58.364Z,93.14
2016-05-28T18:31:58.319Z,93.52
2016-05-28T18:32:58.275Z,94.1
2016-05-28T18:33:58.231Z,94.49
2016-05-28T18:34:58.186Z,93.81
2016-05-28T18:35:58.142Z,94.59
2016-05-28T18:36:58.099Z,94.92
2016-05-28T18:37:58.069Z,95.4
2016-05-28T18:38:58.010Z,96.08
2016-05-28T18:39:57.825Z,95.55
2016-05-28T18:40:57.922Z,95.6
2016-05-28T18:41:57.877Z,95.26
2016-05-28T18:42:57.849Z,95.45
2016-05-28T18:43:57.820Z,94.78
2016-05-28T18:44:57.760Z,94.15
2016-05-28T18:45:57.716Z,94.44
2016-05-28T18:46:57.672Z,95.4
2016-05-28T18:47:57.628Z,95.12
2016-05-28T18:48:57.599Z,95.6
2016-05-28T18:49:58.134Z,95.6
2016-05-28T18:50:57.511Z,95.31
2016-05-28T18:51:57.452Z,96.27
2016-05-28T18:52:57.423Z,96.27
2016-05-28T18:53:57.362Z,95.6
2016-05-28T18:54:57.350Z,95.98
2016-05-28T18:55:57.290Z,95.98
2016-05-28T18:56:57.246Z,96.17
2016-05-28T18:57:57.186Z,96.27
2016-05-28T18:58:57.158Z,95.6
2016-05-28T18:59:57.097Z,95.4
2016-05-28T19:00:57.070Z,95.21
2016-05-28T19:01:57.041Z,95.5
2016-05-28T19:02:56.996Z,95.69
2016-05-28T19:03:56.781Z,95.6
2016-05-28T19:04:56.908Z,96.27
2016-05-28T19:05:56.864Z,96.37
2016-05-28T19:06:56.819Z,96.03
2016-05-28T19:07:56.760Z,96.8
2016-05-28T19:08:56.716Z,97.19
2016-05-28T19:09:56.687Z,96.61
2016-05-28T19:10:56.627Z,97.09
2016-05-28T19:11:56.583Z,96.51
2016-05-28T19:12:56.570Z,96.42
2016-05-28T19:13:56.527Z,96.22
2016-05-28T19:14:56.451Z,96.42
2016-05-28T19:15:56.407Z,96.7
2016-05-28T19:16:56.377Z,96.8
2016-05-28T19:17:56.319Z,96.8
2016-05-28T19:18:56.290Z,96.8
2016-05-28T19:19:56.089Z,97.09
2016-05-28T19:20:56.201Z,97.38
2016-05-28T19:21:56.157Z,97.57
2016-05-28T19:22:56.098Z,97.47
2016-05-28T19:23:56.100Z,97.76
2016-05-28T19:24:56.009Z,97.28
2016-05-28T19:25:55.981Z,97.33
2016-05-28T19:26:55.936Z,97.33
2016-05-28T19:27:55.892Z,97.52
2016-05-28T19:28:55.847Z,97.42
2016-05-28T19:29:55.803Z,97.91
2016-05-28T19:30:55.759Z,98.05
2016-05-28T19:31:55.715Z,97.86
2016-05-28T19:32:55.514Z,97.81
2016-05-28T19:33:55.674Z,98.39
2016-05-28T19:34:56.145Z,98.1
2016-05-28T19:35:55.647Z,98.39
2016-05-28T19:36:55.604Z,98.1
2016-05-28T19:37:55.606Z,98.29
2016-05-28T19:38:55.561Z,98.96
2016-05-28T19:39:55.283Z,98.39
2016-05-28T19:40:55.474Z,98.1
2016-05-28T19:41:55.383Z,98.29
2016-05-28T19:42:55.386Z,98.19
2016-05-28T19:43:55.154Z,98.39
2016-05-28T19:44:55.234Z,98.29
2016-05-28T19:45:55.097Z,98.29
2016-05-28T19:46:55.068Z,98.77
2016-05-28T19:47:55.024Z,99.26
2016-05-28T19:48:54.964Z,99.26
2016-05-28T19:49:54.935Z,99.26
2016-05-28T19:50:54.891Z,99.59
2016-05-28T19:51:54.831Z,99.26
2016-05-28T19:52:54.787Z,99.99
2016-05-28T19:53:54.743Z,99.83
2016-05-28T19:54:54.699Z,99.64
2016-05-28T19:55:54.717Z,99.54
2016-05-28T19:56:54.610Z,99.01
2016-05-28T19:57:54.567Z,99.78
2016-05-28T19:58:54.522Z,99.93
2016-05-28T19:59:54.478Z,99.78
2016-05-28T20:00:54.465Z,99.49
2016-05-28T20:01:54.389Z,99.68
2016-05-28T20:02:54.361Z,99.98
2016-05-28T20:03:54.301Z,99.88
2016-05-28T20:04:54.429Z,99.98
2016-05-28T20:05:54.229Z,99.88
2016-05-28T20:06:54.168Z,99.21
2016-05-28T20:07:54.124Z,99.4
2016-05-28T20:08:54.097Z,99.3
2016-05-28T20:09:54.036Z,99.88
2016-05-28T20:10:54.022Z,99.88
2016-05-28T20:11:53.979Z,99.68
2016-05-28T20:12:53.903Z,99.98
2016-05-28T20:13:53.860Z,99.78
2016-05-28T20:14:53.816Z,99.99
2016-05-28T20:15:53.802Z,99.99
2016-05-28T20:16:53.727Z,99.92
2016-05-28T20:17:53.683Z,99.99
2016-05-28T20:18:53.669Z,99.99
2016-05-28T20:19:53.954Z,99.99
2016-05-28T20:20:53.394Z,99.99
2016-05-28T20:21:53.507Z,99.99
2016-05-28T20:22:53.493Z,99.99
2016-05-28T20:23:53.262Z,99.99
2016-05-28T20:24:53.373Z,99.99
2016-05-28T20:25:53.329Z,99.99
2016-05-28T20:26:53.285Z,99.99
2016-05-28T20:27:53.240Z,99.99
2016-05-28T20:28:53.041Z,99.99
2016-05-28T20:29:53.153Z,99.99
2016-05-28T20:30:53.092Z,99.99
2016-05-28T20:31:53.065Z,99.99
2016-05-28T20:32:53.004Z,99.99
2016-05-28T20:33:52.819Z,99.99
2016-05-28T20:34:53.134Z,99.99
2016-05-28T20:35:52.887Z,99.99
2016-05-28T20:36:52.827Z,99.99
2016-05-28T20:37:52.800Z,99.99
2016-05-28T20:38:52.755Z,99.99
2016-05-28T20:39:52.711Z,99.99
2016-05-28T20:40:52.666Z,99.99
2016-05-28T20:41:52.622Z,99.99
2016-05-28T20:42:52.563Z,99.99
2016-05-28T20:43:52.533Z,99.99
2016-05-28T20:44:52.334Z,99.99
2016-05-28T20:45:52.430Z,99.99
2016-05-28T20:46:52.401Z,99.99
2016-05-28T20:47:52.341Z,99.99
2016-05-28T20:48:52.297Z,99.99
2016-05-28T20:49:52.456Z,99.99
2016-05-28T20:50:52.224Z,99.99
2016-05-28T20:51:52.196Z,99.99
2016-05-28T20:52:52.120Z,99.99
2016-05-28T20:53:52.076Z,99.99
2016-05-28T20:54:52.048Z,99.99
2016-05-28T20:55:51.988Z,99.99
2016-05-28T20:56:51.928Z,99.99
2016-05-28T20:57:51.899Z,99.99
2016-05-28T20:58:51.856Z,99.99
2016-05-28T20:59:51.812Z,99.99
2016-05-28T21:00:51.751Z,99.99
2016-05-28T21:01:51.566Z,99.99
2016-05-28T21:02:51.678Z,99.99
2016-05-28T21:03:51.620Z,99.99
2016-05-28T21:04:51.856Z,99.99
2016-05-28T21:05:51.546Z,99.99
2016-05-28T21:06:51.503Z,99.99
2016-05-28T21:07:51.426Z,99.99
2016-05-28T21:08:51.398Z,99.99
2016-05-28T21:09:51.353Z,99.99
2016-05-28T21:10:51.309Z,99.99
2016-05-28T21:11:51.469Z,99.99
2016-05-28T21:12:51.221Z,99.99
2016-05-28T21:13:51.177Z,99.99
2016-05-28T21:14:51.133Z,99.99
2016-05-28T21:15:51.088Z,99.99
2016-05-28T21:16:51.060Z,99.99
2016-05-28T21:17:51.032Z,99.99
2016-05-28T21:18:50.955Z,99.99
2016-05-28T21:19:50.755Z,99.99
2016-05-28T21:20:50.852Z,99.99
2016-05-28T21:21:50.823Z,99.99
2016-05-28T21:22:50.920Z,99.99
2016-05-28T21:23:50.751Z,99.99
2016-05-28T21:24:50.691Z,99.99
2016-05-28T21:25:50.678Z,99.99
2016-05-28T21:26:50.618Z,99.99
2016-05-28T21:27:50.543Z,99.99
2016-05-28T21:28:50.498Z,99.99
2016-05-28T21:29:50.454Z,99.99
2016-05-28T21:30:50.426Z,99.99
2016-05-28T21:31:50.365Z,99.99
2016-05-28T21:32:50.322Z,99.99
2016-05-28T21:33:50.387Z,99.99
2016-05-28T21:34:50.218Z,99.99
2016-05-28T21:35:50.877Z,99.99
2016-05-28T21:36:50.129Z,99.99
2016-05-28T21:37:50.086Z,99.99
2016-05-28T21:38:50.166Z,99.99
2016-05-28T21:39:50.012Z,99.99
2016-05-28T21:40:49.953Z,99.99
2016-05-28T21:41:49.892Z,99.99
2016-05-28T21:42:49.864Z,99.99
2016-05-28T21:43:49.819Z,99.99
2016-05-28T21:44:49.619Z,99.99
2016-05-28T21:45:49.732Z,99.99
2016-05-28T21:46:49.672Z,99.99
2016-05-28T21:47:49.628Z,99.99
2016-05-28T21:48:49.599Z,99.99
2016-05-28T21:49:49.539Z,99.99
2016-05-28T21:50:49.496Z,99.99
2016-05-28T21:51:49.451Z,99.99
2016-05-28T21:52:49.407Z,99.99
2016-05-28T21:53:49.191Z,99.99
2016-05-28T21:54:49.162Z,99.99
2016-05-28T21:55:49.259Z,99.99
2016-05-28T21:56:49.215Z,99.99
2016-05-28T21:57:49.171Z,99.99
2016-05-28T21:58:49.142Z,99.99
2016-05-28T21:59:49.285Z,99.99
2016-05-28T22:00:48.898Z,99.99
2016-05-28T22:01:48.994Z,99.99
2016-05-28T22:02:48.949Z,99.99
2016-05-28T22:03:48.906Z,99.99
2016-05-28T22:04:48.861Z,99.99
2016-05-28T22:05:49.207Z,99.99
2016-05-28T22:06:48.772Z,99.99
2016-05-28T22:07:48.712Z,99.99
2016-05-28T22:08:48.684Z,99.99
2016-05-28T22:09:48.625Z,99.99
2016-05-28T22:10:48.581Z,99.99
2016-05-28T22:11:48.552Z,99.99
2016-05-28T22:12:48.492Z,99.99
2016-05-28T22:13:48.448Z,99.99
2016-05-28T22:14:48.403Z,99.99
2016-05-28T22:15:48.359Z,99.99
2016-05-28T22:16:48.316Z,99.99
2016-05-28T22:17:48.255Z,99.99
2016-05-28T22:18:48.211Z,99.99
2016-05-28T22:19:48.011Z,99.99
2016-05-28T22:20:48.388Z,99.99
2016-05-28T22:21:48.079Z,99.99
2016-05-28T22:22:48.035Z,99.99
2016-05-28T22:23:47.991Z,99.99
2016-05-28T22:24:47.946Z,99.99
2016-05-28T22:25:47.902Z,99.99
2016-05-28T22:26:47.702Z,99.99
2016-05-28T22:27:47.798Z,99.99
2016-05-28T22:28:47.598Z,99.99
2016-05-28T22:29:47.710Z,99.99
2016-05-28T22:30:47.665Z,99.99
2016-05-28T22:31:47.621Z,99.99
2016-05-28T22:32:47.592Z,99.99
2016-05-28T22:33:47.532Z,99.99
2016-05-28T22:34:47.707Z,99.99
2016-05-28T22:35:47.835Z,99.99
2016-05-28T22:36:47.400Z,99.99
2016-05-28T22:37:47.356Z,99.99
2016-05-28T22:38:47.296Z,99.99
2016-05-28T22:39:47.252Z,99.99